Time;durP1;ratioP1;P1;durP2;ratioP2;P2;SDS_P1;SDS_P2;PMS_P1;PMS_P2;Temp;Humidity;BMP_temperature;BMP_pressure;BME280_temperature;BME280_humidity;BME280_pressure;Samples;Min_cycle;Max_cycle;Signal;HPM_P1;HPM_P2
2024/03/18 00:01:58;;;;;;;10.57;4.72;;;10.80;99.90;;;;;;4988505;28;20422;-62
2024/03/18 00:04:24;;;;;;;11.70;3.97;;;10.90;99.90;;;;;;4990032;28;20081;-62
2024/03/18 00:06:50;;;;;;;9.60;4.45;;;10.80;99.90;;;;;;4990433;28;20179;-62
2024/03/18 00:09:16;;;;;;;8.45;4.18;;;10.80;99.90;;;;;;4986170;28;20108;-62
2024/03/18 00:11:41;;;;;;;9.75;4.32;;;10.80;99.90;;;;;;4988452;28;20057;-62
2024/03/18 00:14:07;;;;;;;13.20;4.60;;;10.70;99.90;;;;;;4988928;28;20052;-62
2024/03/18 00:16:33;;;;;;;7.03;3.72;;;10.70;99.90;;;;;;4988373;28;20054;-62
2024/03/18 00:18:59;;;;;;;8.52;4.07;;;10.70;99.90;;;;;;4989977;28;20042;-62
2024/03/18 00:21:25;;;;;;;5.97;4.13;;;10.70;99.90;;;;;;4990167;28;20054;-62
2024/03/18 00:23:50;;;;;;;6.50;3.60;;;10.70;99.90;;;;;;4989296;28;20046;-62
2024/03/18 00:26:16;;;;;;;6.22;3.92;;;10.70;99.90;;;;;;4987570;28;20046;-62
2024/03/18 00:28:43;;;;;;;9.38;4.50;;;10.70;99.90;;;;;;4989277;28;20452;-62
2024/03/18 00:31:10;;;;;;;10.23;4.05;;;10.70;99.90;;;;;;4988681;28;20046;-62
2024/03/18 00:33:36;;;;;;;12.43;4.60;;;10.70;99.90;;;;;;4986777;28;20061;-62
2024/03/18 00:36:02;;;;;;;8.75;4.07;;;10.70;99.90;;;;;;4989714;28;20418;-62
2024/03/18 00:38:28;;;;;;;7.38;3.65;;;10.70;99.90;;;;;;4980621;28;20108;-62
2024/03/18 00:41:44;;;;;;;16.48;4.70;;;10.70;99.90;;;;;;4988708;28;20087;-62
2024/03/18 00:43:43;;;;;;;8.02;4.18;;;10.70;99.90;;;;;;4987393;28;20046;-62
2024/03/18 00:46:08;;;;;;;8.30;3.70;;;10.70;99.90;;;;;;4988133;28;20054;-62
2024/03/18 00:48:34;;;;;;;9.63;4.40;;;10.70;99.90;;;;;;4988465;28;20663;-62
2024/03/18 00:51:00;;;;;;;8.15;3.85;;;10.80;99.90;;;;;;4988628;28;20523;-62
2024/03/18 00:53:26;;;;;;;9.32;4.38;;;10.80;99.90;;;;;;4988666;28;20432;-63
2024/03/18 00:55:52;;;;;;;9.63;4.50;;;10.80;99.90;;;;;;4989023;28;20457;-63
2024/03/18 00:58:18;;;;;;;10.68;4.13;;;10.80;99.90;;;;;;4990160;28;20050;-63
2024/03/18 01:00:44;;;;;;;8.40;3.70;;;10.80;99.90;;;;;;4985602;28;20062;-63
2024/03/18 01:03:10;;;;;;;9.70;4.60;;;10.80;99.90;;;;;;4989433;28;20115;-63
2024/03/18 01:05:36;;;;;;;9.75;3.95;;;10.80;99.90;;;;;;4989346;28;20581;-63
2024/03/18 01:08:02;;;;;;;10.05;4.53;;;10.80;99.90;;;;;;4989196;28;20058;-63
2024/03/18 01:10:28;;;;;;;12.73;4.85;;;10.80;99.90;;;;;;4988409;28;20089;-63
2024/03/18 01:12:56;;;;;;;10.27;4.53;;;10.80;99.90;;;;;;4987940;28;20462;-63
2024/03/18 01:15:22;;;;;;;10.73;4.25;;;10.80;99.90;;;;;;4991527;28;20414;-63
2024/03/18 01:17:48;;;;;;;14.50;4.53;;;10.80;99.90;;;;;;4992126;28;20064;-63
2024/03/18 01:20:16;;;;;;;8.75;4.07;;;10.80;99.90;;;;;;4991754;28;20049;-63
2024/03/18 01:22:42;;;;;;;7.47;3.80;;;10.70;99.90;;;;;;4992907;28;20418;-63
2024/03/18 01:25:13;;;;;;;6.35;3.50;;;10.70;99.90;;;;;;4993041;28;20580;-63
2024/03/18 01:27:45;;;;;;;8.27;3.97;;;10.70;99.90;;;;;;4991919;28;20069;-62
2024/03/18 01:30:12;;;;;;;7.28;3.05;;;10.70;99.90;;;;;;4989682;28;20494;-62
2024/03/18 01:32:39;;;;;;;12.15;3.50;;;10.70;99.90;;;;;;4991630;28;20131;-62
2024/03/18 01:35:06;;;;;;;8.50;4.00;;;10.70;99.90;;;;;;4987340;28;20054;-63
2024/03/18 01:37:32;;;;;;;8.85;3.60;;;10.70;99.90;;;;;;4992002;28;20085;-63
2024/03/18 01:39:58;;;;;;;9.40;3.63;;;10.70;99.90;;;;;;4986850;28;20045;-63
2024/03/18 01:42:24;;;;;;;8.77;4.03;;;10.60;99.90;;;;;;4992106;28;20162;-63
2024/03/18 01:44:54;;;;;;;9.63;4.18;;;10.60;99.90;;;;;;4991542;28;20092;-63
2024/03/18 01:47:21;;;;;;;7.30;2.92;;;10.60;99.90;;;;;;4989764;28;20049;-62
2024/03/18 01:49:52;;;;;;;8.68;3.17;;;10.60;99.90;;;;;;4974744;28;20055;-62
2024/03/18 01:52:18;;;;;;;;;;;10.60;99.90;;;;;;4992822;28;20061;-63
2024/03/18 01:54:44;;;;;;;10.57;3.13;;;10.60;99.90;;;;;;4990066;28;20294;-63
2024/03/18 01:57:10;;;;;;;5.18;2.45;;;10.60;99.90;;;;;;4989541;28;20050;-63
2024/03/18 01:59:36;;;;;;;6.90;3.00;;;10.70;99.90;;;;;;4990921;28;20050;-64
2024/03/18 02:02:02;;;;;;;8.15;2.50;;;10.70;99.90;;;;;;4988848;28;20057;-63
2024/03/18 02:04:28;;;;;;;5.55;2.20;;;10.70;99.90;;;;;;4991739;28;20745;-63
2024/03/18 02:06:54;;;;;;;8.05;2.35;;;10.70;99.90;;;;;;4991003;28;20046;-63
2024/03/18 02:09:20;;;;;;;10.15;2.47;;;10.70;99.90;;;;;;4990233;28;20253;-63
2024/03/18 02:11:47;;;;;;;7.00;2.30;;;10.80;99.90;;;;;;4990651;28;20050;-63
2024/03/18 02:14:13;;;;;;;10.40;2.13;;;10.70;99.90;;;;;;4990955;28;20046;-62
2024/03/18 02:16:39;;;;;;;4.88;2.10;;;10.80;99.90;;;;;;4989732;28;20060;-63
2024/03/18 02:19:05;;;;;;;7.57;2.30;;;10.80;99.90;;;;;;4991020;28;20105;-63
2024/03/18 02:21:31;;;;;;;7.60;2.40;;;10.90;99.90;;;;;;4990937;28;20053;-63
2024/03/18 02:23:57;;;;;;;4.95;2.08;;;10.80;99.90;;;;;;4991228;28;20046;-63
2024/03/18 02:26:23;;;;;;;6.55;1.92;;;10.70;99.90;;;;;;4989996;28;20065;-63
2024/03/18 02:28:50;;;;;;;6.63;1.70;;;10.70;99.90;;;;;;4990078;28;20058;-62
2024/03/18 02:31:15;;;;;;;8.43;2.25;;;10.70;99.90;;;;;;4987062;28;20100;-62
2024/03/18 02:33:42;;;;;;;7.88;2.10;;;10.70;99.90;;;;;;4988002;28;20537;-63
2024/03/18 02:36:08;;;;;;;4.47;1.60;;;10.70;99.90;;;;;;4984648;28;20426;-63
2024/03/18 02:38:34;;;;;;;5.13;2.17;;;10.70;99.90;;;;;;4989376;28;20626;-63
2024/03/18 02:41:00;;;;;;;5.53;1.80;;;10.70;99.90;;;;;;4990864;28;20065;-62
2024/03/18 02:43:26;;;;;;;6.07;1.52;;;10.70;99.90;;;;;;4989243;28;20038;-63
2024/03/18 02:45:52;;;;;;;7.38;1.98;;;10.70;99.90;;;;;;4990196;28;20061;-63
2024/03/18 02:48:18;;;;;;;4.75;1.70;;;10.70;99.90;;;;;;4977396;28;20133;-63
2024/03/18 02:50:44;;;;;;;8.18;1.70;;;10.60;99.90;;;;;;4991860;28;20077;-63
2024/03/18 02:53:10;;;;;;;8.75;1.92;;;10.60;99.90;;;;;;4993880;28;20054;-63
2024/03/18 02:55:36;;;;;;;7.93;1.77;;;10.60;99.90;;;;;;4993357;28;20557;-62
2024/03/18 02:58:02;;;;;;;6.30;1.55;;;10.60;99.90;;;;;;4991312;28;20500;-63
2024/03/18 03:00:27;;;;;;;6.32;2.38;;;10.60;99.90;;;;;;4992225;28;20047;-63
2024/03/18 03:02:53;;;;;;;6.10;1.50;;;10.60;99.90;;;;;;4973056;28;20061;-63
2024/03/18 03:05:19;;;;;;;5.53;1.70;;;10.60;99.90;;;;;;4993803;28;20054;-63
2024/03/18 03:07:45;;;;;;;6.50;1.55;;;10.60;99.90;;;;;;4990494;28;20058;-63
2024/03/18 03:10:11;;;;;;;5.03;2.33;;;10.60;99.90;;;;;;4991792;28;20451;-63
2024/03/18 03:12:36;;;;;;;7.65;1.63;;;10.60;99.90;;;;;;4991451;28;20656;-63
2024/03/18 03:15:03;;;;;;;4.82;1.88;;;10.60;99.90;;;;;;4989816;28;20062;-63
2024/03/18 03:17:28;;;;;;;7.28;1.80;;;10.60;99.90;;;;;;4990900;28;20165;-63
2024/03/18 03:19:54;;;;;;;5.25;1.88;;;10.70;99.90;;;;;;4989077;28;20070;-63
2024/03/18 03:22:20;;;;;;;5.35;1.45;;;10.70;99.90;;;;;;4988096;28;20050;-63
2024/03/18 03:24:50;;;;;;;6.95;1.80;;;10.70;99.90;;;;;;4989082;28;20062;-63
2024/03/18 03:27:16;;;;;;;5.27;1.77;;;10.70;99.90;;;;;;4987526;28;20075;-63
2024/03/18 03:29:42;;;;;;;5.20;1.63;;;10.70;99.90;;;;;;4990701;28;20367;-63
2024/03/18 03:32:13;;;;;;;7.45;1.58;;;10.70;99.90;;;;;;4986975;28;20053;-63
2024/03/18 03:34:39;;;;;;;4.90;1.63;;;10.80;99.90;;;;;;4989918;28;20145;-63
2024/03/18 03:37:07;;;;;;;6.05;1.63;;;10.80;99.90;;;;;;4988776;28;20417;-63
2024/03/18 03:39:33;;;;;;;6.30;2.05;;;10.80;99.90;;;;;;4991193;28;20045;-63
2024/03/18 03:41:59;;;;;;;6.63;2.40;;;10.80;99.90;;;;;;4990619;28;20064;-63
2024/03/18 03:44:25;;;;;;;9.18;2.38;;;10.80;99.90;;;;;;4986568;28;20426;-63
2024/03/18 03:46:51;;;;;;;5.93;1.92;;;10.80;99.90;;;;;;4987436;28;20139;-63
2024/03/18 03:49:17;;;;;;;3.75;1.80;;;10.80;99.90;;;;;;4990389;28;20447;-63
2024/03/18 03:51:43;;;;;;;8.05;1.90;;;10.80;99.90;;;;;;4988454;28;20069;-63
2024/03/18 03:54:09;;;;;;;4.25;1.73;;;10.80;99.90;;;;;;4989889;28;20057;-63
2024/03/18 03:56:34;;;;;;;7.38;1.90;;;10.80;99.90;;;;;;4985185;28;20068;-63
2024/03/18 03:59:00;;;;;;;5.18;2.55;;;10.80;99.90;;;;;;4988849;28;20089;-63
2024/03/18 04:01:26;;;;;;;6.15;1.92;;;10.80;99.90;;;;;;4990410;28;20082;-63
2024/03/18 04:03:52;;;;;;;6.22;2.08;;;10.80;99.90;;;;;;4990671;28;20054;-63
2024/03/18 04:06:18;;;;;;;9.90;2.20;;;10.80;99.90;;;;;;4989703;28;20050;-63
2024/03/18 04:08:43;;;;;;;6.78;2.00;;;10.80;99.90;;;;;;4984596;28;20057;-63
2024/03/18 04:11:09;;;;;;;10.68;2.08;;;10.70;99.90;;;;;;4989064;28;20081;-63
2024/03/18 04:13:35;;;;;;;9.15;2.40;;;10.70;99.90;;;;;;4988966;28;20089;-63
2024/03/18 04:16:02;;;;;;;9.60;2.33;;;10.70;99.90;;;;;;4986761;28;20158;-63
2024/03/18 04:18:29;;;;;;;3.05;1.70;;;10.70;99.90;;;;;;4987073;28;20649;-62
2024/03/18 04:20:54;;;;;;;5.32;1.95;;;10.70;99.90;;;;;;4987888;28;20529;-63
2024/03/18 04:23:20;;;;;;;7.15;2.22;;;10.70;99.90;;;;;;4985002;28;20086;-63
2024/03/18 04:25:47;;;;;;;6.18;2.40;;;10.60;99.90;;;;;;4988744;28;20062;-63
2024/03/18 04:28:13;;;;;;;7.45;2.50;;;10.60;99.90;;;;;;4986318;28;20092;-63
2024/03/18 04:30:39;;;;;;;5.93;2.45;;;10.60;99.90;;;;;;4988580;28;20057;-63
2024/03/18 04:33:06;;;;;;;10.10;2.70;;;10.60;99.90;;;;;;4989362;28;20147;-63
2024/03/18 04:35:32;;;;;;;6.10;2.45;;;10.60;99.90;;;;;;4989879;28;20483;-63
2024/03/18 04:37:57;;;;;;;6.60;2.70;;;10.70;99.90;;;;;;4989190;28;20060;-63
2024/03/18 04:40:25;;;;;;;4.57;2.33;;;10.60;99.90;;;;;;4984709;28;20050;-63
2024/03/18 04:42:52;;;;;;;7.80;2.85;;;10.70;99.90;;;;;;4987372;28;20057;-63
2024/03/18 04:45:20;;;;;;;9.57;2.70;;;10.70;99.90;;;;;;4986846;28;20490;-63
2024/03/18 04:47:55;;;;;;;7.18;2.75;;;10.60;99.90;;;;;;4987173;28;20057;-63
2024/03/18 04:50:25;;;;;;;14.80;3.55;;;10.60;99.90;;;;;;4991150;28;20470;-63
2024/03/18 04:52:53;;;;;;;12.80;3.63;;;10.70;99.90;;;;;;4991531;28;20061;-63
2024/03/18 04:55:20;;;;;;;12.90;3.60;;;10.60;99.90;;;;;;4988671;28;20128;-63
2024/03/18 04:57:46;;;;;;;11.90;3.70;;;10.60;99.90;;;;;;4991798;28;20056;-63
2024/03/18 05:00:14;;;;;;;16.83;4.88;;;10.60;99.90;;;;;;4987636;28;20121;-62
2024/03/18 05:02:40;;;;;;;15.73;6.43;;;10.50;99.90;;;;;;4990584;28;20053;-63
2024/03/18 05:05:13;;;;;;;14.82;6.22;;;10.50;99.90;;;;;;4990518;28;20046;-63
2024/03/18 05:07:43;;;;;;;29.85;15.15;;;10.50;99.90;;;;;;4992157;28;20050;-63
2024/03/18 05:10:10;;;;;;;11.07;4.60;;;10.50;99.90;;;;;;4992414;28;20065;-63
2024/03/18 05:12:39;;;;;;;17.42;7.57;;;10.50;99.90;;;;;;4991442;28;20658;-63
2024/03/18 05:15:07;;;;;;;15.50;5.97;;;10.60;99.90;;;;;;4992410;28;20489;-63
2024/03/18 05:17:33;;;;;;;9.35;5.38;;;10.60;99.90;;;;;;4986970;28;20561;-63
2024/03/18 05:19:59;;;;;;;9.57;5.97;;;10.60;99.90;;;;;;4991263;28;20079;-63
2024/03/18 05:22:26;;;;;;;14.43;6.75;;;10.50;99.90;;;;;;4992920;28;20050;-63
2024/03/18 05:24:51;;;;;;;12.75;6.85;;;10.60;99.90;;;;;;5008241;28;20046;-63
2024/03/18 05:27:19;;;;;;;13.55;6.43;;;10.60;99.90;;;;;;4989620;28;20528;-63
2024/03/18 05:29:46;;;;;;;14.13;6.22;;;10.60;99.90;;;;;;4989444;28;20054;-63
2024/03/18 05:32:13;;;;;;;13.68;5.80;;;10.60;99.90;;;;;;4990635;28;20054;-63
2024/03/18 05:34:40;;;;;;;13.68;6.32;;;10.70;99.90;;;;;;4989481;28;20057;-63
2024/03/18 05:37:06;;;;;;;16.83;8.07;;;10.70;99.90;;;;;;4990691;28;20049;-63
2024/03/18 05:39:33;;;;;;;18.15;7.25;;;10.70;99.90;;;;;;4989909;28;20050;-63
2024/03/18 05:41:59;;;;;;;13.13;7.15;;;10.60;99.90;;;;;;4992903;28;20446;-64
2024/03/18 05:44:25;;;;;;;11.93;7.13;;;10.70;99.90;;;;;;4991586;28;20498;-63
2024/03/18 05:46:52;;;;;;;15.93;7.38;;;10.70;99.90;;;;;;4991843;28;20655;-64
2024/03/18 05:49:18;;;;;;;11.13;7.38;;;10.70;99.90;;;;;;4992754;28;20056;-63
2024/03/18 05:51:47;;;;;;;15.30;7.35;;;10.60;99.90;;;;;;4991476;28;20053;-64
2024/03/18 05:54:16;;;;;;;20.25;9.38;;;10.50;99.90;;;;;;4989239;28;20061;-64
2024/03/18 05:56:42;;;;;;;18.05;8.77;;;10.50;99.90;;;;;;4989129;28;20502;-63
2024/03/18 05:59:11;;;;;;;21.63;8.82;;;10.50;99.90;;;;;;4991166;28;20100;-63
2024/03/18 06:01:37;;;;;;;18.17;8.75;;;10.50;99.90;;;;;;4972989;28;20127;-63
2024/03/18 06:04:04;;;;;;;18.13;9.25;;;10.50;99.90;;;;;;4992480;28;20057;-63
2024/03/18 06:06:30;;;;;;;15.25;7.97;;;10.40;99.90;;;;;;4988891;28;20065;-63
2024/03/18 06:08:57;;;;;;;14.32;7.85;;;10.40;99.90;;;;;;4990983;28;20058;-62
2024/03/18 06:11:22;;;;;;;16.80;8.38;;;10.30;99.90;;;;;;4987031;28;20057;-63
2024/03/18 06:13:48;;;;;;;20.65;10.10;;;10.40;99.90;;;;;;4992201;28;20062;-64
2024/03/18 06:16:14;;;;;;;22.45;11.00;;;10.40;99.90;;;;;;4992053;28;20053;-63
2024/03/18 06:18:42;;;;;;;17.60;9.90;;;10.40;99.90;;;;;;4992031;28;20060;-64
2024/03/18 06:21:16;;;;;;;18.75;11.52;;;10.30;99.90;;;;;;4991428;28;20068;-64
2024/03/18 06:23:50;;;;;;;22.50;10.48;;;10.30;99.90;;;;;;4991557;28;20066;-64
2024/03/18 06:26:19;;;;;;;67.13;44.53;;;10.40;99.90;;;;;;4989200;28;20100;-64
2024/03/18 06:28:46;;;;;;;31.00;21.17;;;10.30;99.90;;;;;;4990103;28;20053;-64
2024/03/18 06:31:12;;;;;;;32.47;19.38;;;10.30;99.90;;;;;;4987536;28;20061;-64
2024/03/18 06:33:38;;;;;;;25.60;16.45;;;10.40;99.90;;;;;;4990385;28;20061;-64
2024/03/18 06:36:09;;;;;;;25.33;13.65;;;10.40;99.90;;;;;;4997556;28;20074;-64
2024/03/18 06:38:35;;;;;;;;;;;10.40;99.90;;;;;;4997504;28;20049;-64
2024/03/18 06:41:01;;;;;;;25.25;14.50;;;10.40;99.90;;;;;;5000210;28;19934;-64
2024/03/18 06:43:27;;;;;;;24.63;14.15;;;10.40;99.90;;;;;;4990732;28;20499;-64
2024/03/18 06:45:53;;;;;;;24.27;13.13;;;10.30;99.90;;;;;;4991250;28;20050;-64
2024/03/18 06:48:19;;;;;;;25.95;13.60;;;10.30;99.90;;;;;;4990685;28;20149;-64
2024/03/18 06:50:44;;;;;;;25.45;13.80;;;10.30;99.90;;;;;;5006238;28;20104;-64
2024/03/18 06:53:10;;;;;;;25.92;12.55;;;10.30;99.90;;;;;;4991697;28;20061;-64
2024/03/18 06:55:38;;;;;;;28.70;14.23;;;10.20;99.90;;;;;;4983091;28;20052;-64
2024/03/18 06:58:04;;;;;;;29.23;13.88;;;10.20;99.90;;;;;;4989970;28;20062;-64
2024/03/18 07:00:30;;;;;;;24.00;14.35;;;10.10;99.90;;;;;;4991751;28;20517;-64
2024/03/18 07:02:55;;;;;;;23.35;13.70;;;10.10;99.90;;;;;;4993440;28;20050;-64
2024/03/18 07:05:22;;;;;;;27.25;15.65;;;10.10;99.90;;;;;;4993881;28;20452;-64
2024/03/18 07:07:49;;;;;;;27.02;16.02;;;10.10;99.90;;;;;;4985505;28;20053;-64
2024/03/18 07:10:15;;;;;;;33.28;18.10;;;10.10;99.90;;;;;;4993002;28;20061;-64
2024/03/18 07:12:42;;;;;;;28.52;18.33;;;10.10;99.90;;;;;;4988547;28;20073;-63
2024/03/18 07:15:13;;;;;;;37.13;19.92;;;10.10;99.90;;;;;;4986509;28;20062;-63
2024/03/18 07:17:39;;;;;;;39.72;22.58;;;10.20;99.90;;;;;;4991066;28;20053;-63
2024/03/18 07:20:07;;;;;;;39.80;21.65;;;10.20;99.90;;;;;;4990431;28;20168;-63
2024/03/18 07:22:34;;;;;;;38.22;21.23;;;10.20;99.90;;;;;;4992025;28;20054;-63
2024/03/18 07:25:00;;;;;;;33.35;21.05;;;10.20;99.90;;;;;;4988938;28;20495;-63
2024/03/18 07:27:27;;;;;;;46.67;23.50;;;10.20;99.90;;;;;;4988968;28;20112;-63
2024/03/18 07:29:57;;;;;;;41.33;22.30;;;10.20;99.90;;;;;;4987858;28;20053;-63
2024/03/18 07:32:25;;;;;;;36.50;21.88;;;10.20;99.90;;;;;;4987963;28;20058;-63
2024/03/18 07:34:52;;;;;;;45.47;22.40;;;10.30;99.90;;;;;;4990486;28;20065;-63
2024/03/18 07:37:21;;;;;;;38.88;19.38;;;10.30;99.90;;;;;;4987379;28;20049;-63
2024/03/18 07:39:47;;;;;;;49.85;21.95;;;10.10;99.90;;;;;;4986760;28;20419;-64
2024/03/18 07:42:13;;;;;;;34.75;19.73;;;10.10;99.90;;;;;;4988077;28;20049;-63
2024/03/18 07:44:40;;;;;;;36.88;20.60;;;10.00;99.90;;;;;;4988828;28;20100;-63
2024/03/18 07:47:06;;;;;;;39.22;19.92;;;9.90;99.90;;;;;;4989231;28;20046;-63
2024/03/18 07:49:36;;;;;;;39.92;20.80;;;9.90;99.90;;;;;;4987646;28;20854;-63
2024/03/18 07:52:04;;;;;;;46.65;21.52;;;9.80;99.90;;;;;;4986509;28;20057;-61
2024/03/18 07:54:30;;;;;;;39.13;21.13;;;9.70;99.90;;;;;;4986411;28;20062;-64
2024/03/18 07:56:57;;;;;;;41.83;20.67;;;9.70;99.90;;;;;;4994915;28;20050;-64
2024/03/18 07:59:23;;;;;;;42.95;21.52;;;9.80;99.90;;;;;;4993986;28;20046;-63
2024/03/18 08:01:49;;;;;;;45.75;22.02;;;9.70;99.90;;;;;;4986995;28;20082;-62
2024/03/18 08:04:15;;;;;;;42.80;20.45;;;9.70;99.90;;;;;;4991237;28;20237;-63
2024/03/18 08:06:47;;;;;;;39.03;20.30;;;9.70;99.90;;;;;;4989695;28;20053;-63
2024/03/18 08:09:14;;;;;;;38.58;18.77;;;9.70;99.90;;;;;;4986619;28;20049;-63
2024/03/18 08:11:41;;;;;;;38.05;17.90;;;9.60;99.90;;;;;;4989182;28;20513;-63
2024/03/18 08:14:08;;;;;;;36.38;18.58;;;9.60;99.90;;;;;;4992824;28;20049;-63
2024/03/18 08:16:34;;;;;;;40.92;18.05;;;9.60;99.90;;;;;;4988440;28;20041;-64
2024/03/18 08:19:00;;;;;;;38.83;17.90;;;9.70;99.90;;;;;;4988687;28;20053;-64
2024/03/18 08:21:26;;;;;;;34.70;18.02;;;9.70;99.90;;;;;;4988095;28;20061;-64
2024/03/18 08:23:52;;;;;;;36.10;18.30;;;9.60;99.90;;;;;;4989112;28;20050;-63
2024/03/18 08:26:17;;;;;;;39.78;16.55;;;9.60;99.90;;;;;;4987025;28;20061;-64
2024/03/18 08:28:43;;;;;;;39.47;17.85;;;9.60;99.90;;;;;;4988366;28;20066;-64
2024/03/18 08:31:10;;;;;;;36.38;17.27;;;9.70;99.90;;;;;;4985851;28;20054;-64
2024/03/18 08:33:37;;;;;;;34.63;18.73;;;9.70;99.90;;;;;;4991022;28;20104;-64
2024/03/18 08:36:03;;;;;;;42.45;19.80;;;9.70;99.90;;;;;;4989427;28;20045;-64
2024/03/18 08:38:29;;;;;;;51.55;20.95;;;9.80;99.90;;;;;;4987703;28;20050;-62
2024/03/18 08:40:56;;;;;;;42.53;21.33;;;9.90;99.90;;;;;;4988163;28;20054;-61
2024/03/18 08:43:22;;;;;;;37.42;19.83;;;9.90;99.90;;;;;;4995617;28;20507;-61
2024/03/18 08:45:55;;;;;;;64.40;23.30;;;10.00;99.90;;;;;;4992552;28;20061;-62
2024/03/18 08:48:21;;;;;;;49.92;22.30;;;10.00;99.90;;;;;;4987350;28;20050;-64
2024/03/18 08:50:48;;;;;;;44.50;22.77;;;10.10;99.90;;;;;;4986504;28;20061;-63
2024/03/18 08:53:14;;;;;;;43.97;22.90;;;10.10;99.90;;;;;;4988304;28;20132;-62
2024/03/18 08:55:41;;;;;;;69.93;27.52;;;10.20;99.90;;;;;;4987629;28;20556;-61
2024/03/18 08:58:06;;;;;;;45.08;23.48;;;10.40;99.90;;;;;;4984846;28;20057;-63
2024/03/18 09:00:33;;;;;;;46.30;22.85;;;10.50;99.90;;;;;;4986288;28;20107;-62
2024/03/18 09:02:59;;;;;;;55.95;24.10;;;10.50;99.90;;;;;;4987364;28;20045;-62
2024/03/18 09:05:25;;;;;;;50.22;22.23;;;10.70;99.90;;;;;;4988871;28;20049;-63
2024/03/18 09:07:51;;;;;;;40.65;20.88;;;10.80;99.90;;;;;;4986203;28;20372;-63
2024/03/18 09:10:17;;;;;;;35.50;19.23;;;10.80;99.90;;;;;;4988481;28;20052;-62
2024/03/18 09:12:43;;;;;;;23.40;16.15;;;10.70;99.90;;;;;;4992197;28;20056;-63
2024/03/18 09:15:10;;;;;;;28.52;15.73;;;10.80;99.90;;;;;;4986175;28;20072;-63
2024/03/18 09:17:36;;;;;;;22.90;14.18;;;10.70;99.90;;;;;;4991451;28;20046;-64
2024/03/18 09:20:04;;;;;;;24.55;15.10;;;10.50;99.90;;;;;;4991858;28;20053;-64
2024/03/18 09:22:30;;;;;;;31.67;17.08;;;10.60;99.90;;;;;;4996079;28;20050;-63
2024/03/18 09:24:56;;;;;;;20.52;13.13;;;10.60;99.90;;;;;;4992148;28;20392;-59
2024/03/18 09:27:22;;;;;;;30.40;16.27;;;10.80;99.90;;;;;;4986197;28;20129;-62
2024/03/18 09:29:49;;;;;;;24.25;14.27;;;10.80;99.90;;;;;;4986782;28;20112;-63
2024/03/18 09:32:15;;;;;;;18.98;12.02;;;10.80;99.90;;;;;;4989146;28;20065;-63
2024/03/18 09:34:42;;;;;;;31.67;14.35;;;10.70;99.90;;;;;;4992852;28;20687;-64
2024/03/18 09:37:08;;;;;;;32.45;15.25;;;10.70;99.90;;;;;;4991730;28;20400;-66
2024/03/18 09:39:34;;;;;;;27.73;14.30;;;10.80;99.90;;;;;;4992423;28;20049;-62
2024/03/18 09:42:00;;;;;;;21.08;13.48;;;10.70;99.90;;;;;;4991600;28;20050;-64
2024/03/18 09:44:26;;;;;;;23.08;13.02;;;10.80;99.90;;;;;;4978281;28;20129;-64
2024/03/18 09:46:52;;;;;;;30.33;15.52;;;10.80;99.90;;;;;;4994077;28;20046;-65
2024/03/18 09:49:22;;;;;;;19.30;11.55;;;10.80;99.90;;;;;;4993434;28;20065;-64
2024/03/18 09:51:49;;;;;;;22.23;13.13;;;10.90;99.90;;;;;;4986529;28;20081;-62
2024/03/18 09:54:19;;;;;;;23.38;13.20;;;10.90;99.90;;;;;;4996873;28;20100;-63
2024/03/18 09:56:48;;;;;;;;;;;10.90;99.90;;;;;;4999822;28;20111;-63
2024/03/18 09:59:14;;;;;;;21.83;12.43;;;11.00;99.90;;;;;;4995508;28;19936;-64
2024/03/18 10:01:40;;;;;;;23.73;12.75;;;10.90;99.90;;;;;;4990571;28;20050;-62
2024/03/18 10:04:06;;;;;;;27.40;14.20;;;10.70;99.90;;;;;;4991183;28;20471;-59
2024/03/18 10:06:33;;;;;;;26.83;15.18;;;10.90;99.90;;;;;;4990814;28;20050;-62
2024/03/18 10:08:59;;;;;;;21.90;13.45;;;11.00;99.90;;;;;;4991380;28;20708;-60
2024/03/18 10:11:25;;;;;;;28.85;16.70;;;11.10;99.90;;;;;;4995186;28;20046;-62
2024/03/18 10:13:51;;;;;;;27.73;14.93;;;11.20;99.90;;;;;;4991175;28;20062;-61
2024/03/18 10:16:16;;;;;;;24.48;14.52;;;11.40;99.90;;;;;;4991352;28;20046;-61
2024/03/18 10:18:42;;;;;;;29.17;14.43;;;11.60;99.90;;;;;;4991721;28;20447;-62
2024/03/18 10:21:08;;;;;;;28.25;14.18;;;11.80;99.90;;;;;;4990865;28;20053;-60
2024/03/18 10:23:34;;;;;;;24.42;10.95;;;12.10;99.90;;;;;;4987868;28;20057;-61
2024/03/18 10:26:03;;;;;;;12.43;8.63;;;12.20;99.90;;;;;;4998417;28;20050;-60
2024/03/18 10:28:29;;;;;;;10.38;7.40;;;12.40;99.90;;;;;;4987906;28;20046;-60
2024/03/18 10:30:59;;;;;;;9.98;7.55;;;12.60;99.90;;;;;;4992283;28;20480;-59
2024/03/18 10:33:25;;;;;;;9.70;6.35;;;12.80;99.90;;;;;;4990666;28;20059;-59
2024/03/18 10:35:51;;;;;;;8.52;6.63;;;13.00;99.90;;;;;;4993016;28;20132;-62
2024/03/18 10:38:24;;;;;;;8.98;7.10;;;13.10;99.90;;;;;;4990022;28;20388;-62
2024/03/18 10:40:53;;;;;;;9.90;7.38;;;13.30;99.90;;;;;;4992746;28;20042;-61
2024/03/18 10:43:32;;;;;;;10.52;7.20;;;13.50;99.90;;;;;;4992707;28;20498;-60
2024/03/18 10:45:59;;;;;;;8.60;6.18;;;13.70;99.90;;;;;;4992616;28;20053;-61
2024/03/18 10:48:27;;;;;;;8.68;6.05;;;13.80;99.90;;;;;;4987961;28;20049;-61
2024/03/18 10:50:54;;;;;;;5.70;4.53;;;13.70;99.90;;;;;;4993204;28;20116;-61
2024/03/18 10:53:22;;;;;;;7.60;5.15;;;13.30;99.90;;;;;;4994493;28;20061;-61
2024/03/18 10:55:49;;;;;;;8.15;5.13;;;13.40;99.90;;;;;;4990502;28;20045;-61
2024/03/18 10:58:16;;;;;;;7.88;4.45;;;13.70;99.90;;;;;;4993850;28;20053;-61
2024/03/18 11:00:43;;;;;;;6.13;4.53;;;13.90;99.90;;;;;;4989449;28;20049;-61
2024/03/18 11:03:14;;;;;;;6.45;5.55;;;14.30;99.90;;;;;;4987024;28;20073;-61
2024/03/18 11:05:57;;;;;;;6.25;5.10;;;14.30;99.90;;;;;;4987894;28;20506;-61
2024/03/18 11:08:24;;;;;;;6.32;4.72;;;14.40;99.90;;;;;;4988017;28;20453;-61
2024/03/18 11:10:53;;;;;;;4.40;3.75;;;14.50;99.90;;;;;;4990646;28;20057;-61
2024/03/18 11:13:30;;;;;;;7.72;4.30;;;14.10;99.90;;;;;;4988800;28;20054;-63
2024/03/18 11:15:56;;;;;;;5.97;4.53;;;13.80;99.90;;;;;;4990678;28;20100;-63
2024/03/18 11:18:26;;;;;;;7.10;5.00;;;13.80;99.90;;;;;;4989278;28;20859;-63
2024/03/18 11:20:53;;;;;;;;;;;13.50;99.90;;;;;;4986320;28;20042;-62
2024/03/18 11:23:21;;;;;;;12.10;6.85;;;13.50;99.90;;;;;;4984923;28;19930;-62
2024/03/18 11:26:21;;;;;;;10.73;6.45;;;13.70;99.90;;;;;;4990013;28;20062;-62
2024/03/18 11:28:47;;;;;;;7.93;6.25;;;13.60;99.90;;;;;;4976006;28;20049;-63
2024/03/18 11:31:18;;;;;;;9.93;6.68;;;14.10;99.90;;;;;;4988420;28;20120;-62
2024/03/18 11:33:45;;;;;;;7.35;6.47;;;14.20;99.90;;;;;;4991173;28;20056;-63
2024/03/18 11:36:16;;;;;;;8.85;6.10;;;14.20;99.90;;;;;;4987608;28;20065;-63
2024/03/18 11:38:42;;;;;;;7.18;5.07;;;13.90;99.90;;;;;;4989721;28;20054;-64
2024/03/18 11:41:08;;;;;;;4.65;4.25;;;13.90;99.90;;;;;;4989164;28;20057;-62
2024/03/18 11:43:34;;;;;;;4.88;3.90;;;13.80;99.90;;;;;;4993640;28;20088;-63
2024/03/18 11:46:00;;;;;;;6.60;3.55;;;14.00;99.90;;;;;;4993110;28;20514;-63
2024/03/18 11:48:27;;;;;;;6.32;3.83;;;14.00;99.90;;;;;;4987082;28;20057;-63
2024/03/18 11:50:53;;;;;;;6.63;4.90;;;14.00;99.90;;;;;;4989590;28;20050;-63
2024/03/18 11:53:19;;;;;;;5.72;4.50;;;14.00;99.90;;;;;;4989226;28;20150;-63
2024/03/18 11:55:48;;;;;;;5.28;3.75;;;13.90;99.90;;;;;;4991798;28;20045;-63
2024/03/18 11:58:15;;;;;;;3.90;3.50;;;13.80;99.90;;;;;;4991696;28;20091;-63
2024/03/18 12:00:42;;;;;;;7.00;5.78;;;13.80;99.90;;;;;;4989235;28;20755;-62
2024/03/18 12:03:11;;;;;;;13.88;10.52;;;13.70;99.90;;;;;;4988193;28;20049;-63
2024/03/18 12:05:41;;;;;;;17.17;13.60;;;13.60;99.90;;;;;;4988013;28;20073;-63
2024/03/18 12:08:11;;;;;;;23.38;17.25;;;13.70;99.90;;;;;;4989241;28;20038;-63
2024/03/18 12:10:39;;;;;;;24.55;19.85;;;13.60;99.90;;;;;;4985471;28;20042;-63
2024/03/18 12:13:05;;;;;;;23.05;17.95;;;13.80;99.90;;;;;;4994518;28;20230;-63
2024/03/18 12:15:32;;;;;;;16.77;13.30;;;14.00;99.90;;;;;;4991484;28;20049;-63
2024/03/18 12:17:58;;;;;;;16.20;13.05;;;14.10;99.90;;;;;;4992053;28;20042;-64
2024/03/18 12:20:30;;;;;;;20.60;14.70;;;14.20;99.90;;;;;;4987200;28;20065;-63
2024/03/18 12:23:04;;;;;;;16.23;12.43;;;14.60;99.90;;;;;;4993923;28;20121;-64
2024/03/18 12:31:05;;;;;;;13.68;8.65;;;14.90;99.90;;;;;;4998475;23;20050;-63
2024/03/18 12:33:33;;;;;;;7.93;7.13;;;15.20;99.90;;;;;;4967773;28;20484;-64
2024/03/18 12:35:59;;;;;;;9.57;7.20;;;15.30;99.90;;;;;;4968205;28;20241;-63
2024/03/18 12:38:38;;;;;;;7.65;6.15;;;15.30;99.90;;;;;;4968430;28;20046;-66
2024/03/18 12:41:06;;;;;;;8.23;5.30;;;15.40;99.90;;;;;;4967589;28;20054;-65
2024/03/18 12:43:34;;;;;;;7.18;5.20;;;15.60;99.90;;;;;;4949040;28;20043;-65
2024/03/18 12:46:02;;;;;;;5.65;4.55;;;15.60;99.90;;;;;;4950021;28;20051;-64